Wind from 240 at 4 knots gusting 7

Air temperature 22.2° C
Dewpoint 16.9° C

Last reported at 2014-Apr-19 11:50 UTC.
Time now 2014-Apr-19 12:15 UTC

Location: N 27°46' W 015°34'.
View on Google Maps.

See reports from other nearby stations

Tides Stations Pressure Air Temp Water Temp Dewpoint Dewpoint depression Visibility Wind Speed Wind Dir Waves Ship positions

  
sailing weather and tide predictions

DW8790 Maspalomas ES weather

date/time (UTC)wind fromknots sea level pressurealtimeterstation pressurevisibilityair tempwater tempwave heightnotes
2014-Apr-19 11:50 240 4 gusting 7 22.2
2014-Apr-19 11:40 134 6 gusting 10 21.7
2014-Apr-19 11:30 155 4 gusting 8 22.2
2014-Apr-19 11:20 118 5 gusting 11 21.7
2014-Apr-19 11:10 132 5 gusting 8 21.1
2014-Apr-19 11:00 218 4 gusting 7 21.1
2014-Apr-19 10:50 158 4 gusting 6 20.6
2014-Apr-19 10:40 255 1 gusting 6 20.6
2014-Apr-19 10:30 231 5 gusting 7 20.6
2014-Apr-19 10:20 225 5 gusting 7 21.1
2014-Apr-19 10:10 224 4 gusting 7 20.6
2014-Apr-19 10:00 250 2 gusting 6 20.6
2014-Apr-19 09:50 276 0 gusting 5 20.6
2014-Apr-19 09:40 298 2 gusting 6 20.0
2014-Apr-19 09:30 192 20.0
2014-Apr-19 09:20 194 20.0
2014-Apr-19 09:10 142 2 gusting 4 20.6
2014-Apr-19 09:00 173 1 gusting 4 20.6
2014-Apr-19 08:50 135 1 gusting 6 20.6
2014-Apr-19 08:40 166 0 gusting 2 20.6
2014-Apr-19 08:30 107 1 gusting 5 20.0
2014-Apr-19 08:20 292 19.4
2014-Apr-19 08:10 292 18.9
2014-Apr-19 08:00 292 18.3
2014-Apr-19 07:50 292 18.3
2014-Apr-19 07:40 292 18.3
2014-Apr-19 07:30 292 17.8
2014-Apr-19 07:20 292 1 gusting 4 17.8
2014-Apr-19 07:10 282 3 gusting 4 17.8
2014-Apr-19 07:00 274 2 gusting 4 17.8
2014-Apr-19 06:50 325 1 gusting 5 17.8
2014-Apr-19 06:40 104 0 gusting 2 17.8
2014-Apr-19 06:30 104 17.8
2014-Apr-19 06:20 104 1 gusting 4 17.8
2014-Apr-19 06:10 105 3 gusting 6 17.8
2014-Apr-19 06:00 101 2 gusting 6 17.8
2014-Apr-19 05:50 093 3 gusting 6 17.8
2014-Apr-19 05:40 104 4 gusting 6 17.8
2014-Apr-19 05:30 105 5 gusting 6 17.8
2014-Apr-19 05:20 105 2 gusting 6 17.8
2014-Apr-19 05:10 095 2 gusting 5 17.8
2014-Apr-19 05:00 104 2 gusting 5 18.3
2014-Apr-19 04:50 116 4 gusting 6 18.3
2014-Apr-19 04:40 120 1 gusting 4 18.3
2014-Apr-19 04:30 120 3 gusting 4 18.3
2014-Apr-19 04:20 103 18.3
2014-Apr-19 04:10 103 18.3
2014-Apr-19 04:00 113 0 gusting 4 18.3
2014-Apr-19 03:50 108 1 gusting 6 18.3
2014-Apr-19 03:40 137 4 gusting 7 18.3
2014-Apr-19 03:30 119 3 gusting 7 18.3
2014-Apr-19 03:20 121 4 gusting 10 18.9
2014-Apr-19 03:10 111 7 gusting 10 18.9
2014-Apr-19 03:00 130 6 gusting 8 18.9
2014-Apr-19 02:50 124 6 gusting 8 18.9
2014-Apr-19 02:40 105 6 gusting 10 18.3
2014-Apr-19 02:30 113 6 gusting 10 18.9
2014-Apr-19 02:20 130 5 gusting 8 18.3
2014-Apr-19 02:10 127 4 gusting 6 18.3
2014-Apr-19 02:00 117 2 gusting 6 18.3
2014-Apr-19 01:50 036 18.3
2014-Apr-19 01:40 013 1 gusting 2 18.9
2014-Apr-19 01:30 306 18.9
2014-Apr-19 01:20 306 0 gusting 4 18.9
2014-Apr-19 01:10 250 2 gusting 6 18.9
2014-Apr-19 01:00 258 5 gusting 6 18.9
2014-Apr-19 00:50 256 5 gusting 6 18.9
2014-Apr-19 00:40 265 3 gusting 6 18.9
2014-Apr-19 00:30 249 6 gusting 7 18.9
2014-Apr-19 00:20 174 0 gusting 2 18.9
2014-Apr-19 00:10 129 2 gusting 6 18.3
2014-Apr-19 00:00 127 4 gusting 13 18.9
2014-Apr-18 23:50 124 6 gusting 11 18.9
2014-Apr-18 23:40 109 6 gusting 11 18.9
2014-Apr-18 23:30 105 5 gusting 8 18.9
2014-Apr-18 23:20 099 6 gusting 7 18.9
2014-Apr-18 23:10 089 4 gusting 6 18.9
2014-Apr-18 23:00 107 2 gusting 4 19.4
2014-Apr-18 22:50 224 1 gusting 2 19.4
2014-Apr-18 22:40 224 19.4
2014-Apr-18 22:30 224 0 gusting 2 18.9
2014-Apr-18 22:20 224 0 gusting 2 18.9
2014-Apr-18 22:10 224 0 gusting 4 19.4
2014-Apr-18 22:00 225 1 gusting 4 19.4
2014-Apr-18 21:50 261 3 gusting 5 19.4
2014-Apr-18 21:40 257 2 gusting 5 19.4
2014-Apr-18 21:30 209 0 gusting 7 19.4
2014-Apr-18 21:20 248 4 gusting 7 19.4
2014-Apr-18 21:10 209 5 gusting 7 19.4
2014-Apr-18 21:00 126 2 gusting 4 19.4
2014-Apr-18 20:50 191 1 gusting 5 19.4
2014-Apr-18 20:40 229 1 gusting 4 19.4
2014-Apr-18 20:30 207 19.4
2014-Apr-18 20:20 207 1 gusting 5 19.4
2014-Apr-18 20:10 195 2 gusting 4 19.4
2014-Apr-18 20:00 187 19.4
2014-Apr-18 19:50 237 0 gusting 5 19.4
2014-Apr-18 19:40 264 2 gusting 7 19.4
2014-Apr-18 19:30 260 5 gusting 11 19.4
2014-Apr-18 19:20 263 6 gusting 12 19.4
2014-Apr-18 19:10 278 7 gusting 12 20.0
2014-Apr-18 19:00 269 8 gusting 13 20.0
2014-Apr-18 18:50 265 7 gusting 13 20.0
2014-Apr-18 18:40 252 5 gusting 10 20.6
2014-Apr-18 18:30 259 8 gusting 13 20.6
2014-Apr-18 18:20 242 6 gusting 10 20.6
2014-Apr-18 18:10 290 4 gusting 10 21.1
2014-Apr-18 18:00 304 5 gusting 10 21.1
2014-Apr-18 17:50 251 7 gusting 12 21.1
2014-Apr-18 17:40 279 6 gusting 12 21.1
2014-Apr-18 17:30 272 6 gusting 13 21.1
2014-Apr-18 17:20 269 6 gusting 10 21.1
2014-Apr-18 17:10 256 5 gusting 10 21.7
2014-Apr-18 17:00 235 5 gusting 10 21.7
2014-Apr-18 16:50 237 5 gusting 7 22.2
2014-Apr-18 16:40 233 5 gusting 8 22.2
2014-Apr-18 16:30 192 5 gusting 10 22.2
2014-Apr-18 16:20 194 4 gusting 12 22.2
2014-Apr-18 16:10 260 7 gusting 11 22.2
2014-Apr-18 16:00 242 9 gusting 17 22.8
2014-Apr-18 15:50 224 11 gusting 17 23.9
2014-Apr-18 15:40 103 11 gusting 17 25.0
2014-Apr-18 15:30 107 12 gusting 19 24.4
2014-Apr-18 15:20 128 13 gusting 19 24.4
2014-Apr-18 15:10 124 13 gusting 19 24.4
2014-Apr-18 15:00 111 15 gusting 22 24.4
2014-Apr-18 14:50 111 15 gusting 21 24.4
2014-Apr-18 14:40 116 13 gusting 19 24.4
2014-Apr-18 14:30 119 17 gusting 26 23.9
2014-Apr-18 14:20 099 14 gusting 21 24.4
2014-Apr-18 14:10 117 16 gusting 22 24.4
2014-Apr-18 14:00 106 13 gusting 21 23.9
2014-Apr-18 13:50 100 15 gusting 22 24.4
2014-Apr-18 13:40 105 15 gusting 20 24.4
2014-Apr-18 13:30 100 14 gusting 21 23.9
2014-Apr-18 13:20 109 14 gusting 21 23.3
2014-Apr-18 13:10 127 14 gusting 21 23.9
2014-Apr-18 13:00 119 14 gusting 22 23.3
2014-Apr-18 12:50 138 15 gusting 22 23.3
2014-Apr-18 12:40 110 13 gusting 22 23.9
2014-Apr-18 12:30 123 15 gusting 21 23.3
2014-Apr-18 12:20 123 17 gusting 21 23.3
2014-Apr-18 12:10 114 15 gusting 20 23.3
2014-Apr-18 12:00 106 14 gusting 19 22.8
2014-Apr-18 11:50 128 13 gusting 19 23.3
2014-Apr-18 11:40 116 12 gusting 18 23.3
2014-Apr-18 11:30 107 14 gusting 19 22.8
2014-Apr-18 11:20 086 14 gusting 20 22.8
2014-Apr-18 11:10 104 14 gusting 19 22.8
2014-Apr-18 11:00 127 13 gusting 19 22.2
2014-Apr-18 10:50 115 14 gusting 19 22.2
2014-Apr-18 10:40 135 13 gusting 19 22.2
2014-Apr-18 10:30 126 13 gusting 18 22.8
2014-Apr-18 10:20 138 13 gusting 19 22.8
2014-Apr-18 10:10 123 12 gusting 17 22.8
2014-Apr-18 10:00 111 11 gusting 15 23.3
2014-Apr-18 09:50 094 8 gusting 15 23.3
2014-Apr-18 09:40 101 7 gusting 17 22.8
2014-Apr-18 09:30 115 7 gusting 12 22.8
2014-Apr-18 09:20 130 8 gusting 13 22.2
2014-Apr-18 09:10 164 0 gusting 4 21.1
2014-Apr-18 09:00 286 1 gusting 2 21.1
2014-Apr-18 08:50 340 0 gusting 4 20.6
2014-Apr-18 08:40 320 20.6
2014-Apr-18 08:30 297 1 gusting 4 20.0
2014-Apr-18 08:20 290 0 gusting 5 19.4
2014-Apr-18 08:10 103 19.4
2014-Apr-18 08:00 103 19.4
2014-Apr-18 07:50 344 1 gusting 5 18.3
2014-Apr-18 07:40 346 2 gusting 6 17.8
2014-Apr-18 07:30 350 5 gusting 7 17.2
2014-Apr-18 07:20 350 3 gusting 6 17.2
2014-Apr-18 07:10 003 2 gusting 6 16.7
2014-Apr-18 07:00 022 2 gusting 5 16.1
2014-Apr-18 06:50 344 4 gusting 7 16.1
2014-Apr-18 06:40 334 5 gusting 6 16.1
2014-Apr-18 06:30 333 2 gusting 5 16.1
2014-Apr-18 06:20 335 2 gusting 5 16.1
2014-Apr-18 06:10 325 1 gusting 2 16.1
2014-Apr-18 06:00 355 0 gusting 5 16.7
2014-Apr-18 05:50 342 2 gusting 6 16.7
2014-Apr-18 05:40 346 2 gusting 5 16.7
2014-Apr-18 05:30 005 2 gusting 6 16.7
2014-Apr-18 05:20 350 2 gusting 6 16.7
2014-Apr-18 05:10 335 1 gusting 4 16.7
2014-Apr-18 05:00 348 1 gusting 2 16.7
2014-Apr-18 04:50 327 2 gusting 5 16.7
2014-Apr-18 04:40 358 2 gusting 5 16.7
2014-Apr-18 04:30 005 3 gusting 6 16.7
2014-Apr-18 04:20 347 2 gusting 4 16.7
2014-Apr-18 04:10 16.1
2014-Apr-18 04:00 001 3 gusting 5 16.1
2014-Apr-18 03:50 232 16.1
2014-Apr-18 03:40 232 16.7
2014-Apr-18 03:30 232 1 gusting 1 16.1
2014-Apr-18 03:20 232 16.1
2014-Apr-18 03:10 232 16.1
2014-Apr-18 03:00 232 1 gusting 2 16.1
2014-Apr-18 02:50 232 1 gusting 2 16.1
2014-Apr-18 02:40 232 0 gusting 2 16.1
2014-Apr-18 02:30 232 16.7
2014-Apr-18 02:20 232 16.7
2014-Apr-18 02:10 232 16.7
2014-Apr-18 02:00 232 16.7
2014-Apr-18 01:50 232 0 gusting 2 16.7
2014-Apr-18 01:40 232 1 gusting 2 16.7
2014-Apr-18 01:30 232 0 gusting 1 16.7
2014-Apr-18 01:20 232 16.7
2014-Apr-18 01:10 232 1 gusting 2 17.2
2014-Apr-18 01:00 232 17.2
2014-Apr-18 00:50 232 17.2
2014-Apr-18 00:40 232 17.2
2014-Apr-18 00:30 232 17.2
2014-Apr-18 00:20 232 17.2
2014-Apr-18 00:10 232 17.2
2014-Apr-18 00:00 232 17.8
2014-Apr-17 23:50 232 17.8
2014-Apr-17 23:40 232 0 gusting 1 17.8
2014-Apr-17 23:30 232 17.8
2014-Apr-17 23:20 232 17.8
2014-Apr-17 23:10 232 0 gusting 2 18.3
2014-Apr-17 23:00 253 18.3
2014-Apr-17 22:50 253 0 gusting 2 18.3
2014-Apr-17 22:40 253 18.9
2014-Apr-17 22:30 253 18.9
2014-Apr-17 22:20 253 0 gusting 2 18.9
2014-Apr-17 22:10 253 1 gusting 2 18.9
2014-Apr-17 22:00 253 0 gusting 2 19.4
2014-Apr-17 21:50 253 2 gusting 4 19.4
2014-Apr-17 21:40 188 1 gusting 2 19.4
2014-Apr-17 21:30 188 0 gusting 2 19.4
2014-Apr-17 21:20 266 19.4
2014-Apr-17 21:10 266 1 gusting 4 19.4
2014-Apr-17 21:00 275 1 gusting 6 19.4
2014-Apr-17 20:50 260 2 gusting 6 19.4
2014-Apr-17 20:40 263 2 gusting 5 19.4
2014-Apr-17 20:30 273 2 gusting 6 19.4
2014-Apr-17 20:20 279 3 gusting 6 19.4
2014-Apr-17 20:10 264 4 gusting 6 19.4
2014-Apr-17 20:00 273 2 gusting 4 19.4
2014-Apr-17 19:50 255 4 gusting 6 20.0
2014-Apr-17 19:40 275 4 gusting 8 20.0
2014-Apr-17 19:30 300 4 gusting 10 20.0
2014-Apr-17 19:20 277 5 gusting 10 20.6
2014-Apr-17 19:10 284 4 gusting 8 21.1
2014-Apr-17 19:00 263 5 gusting 7 21.1
2014-Apr-17 18:50 257 5 gusting 7 20.6
2014-Apr-17 18:40 262 6 gusting 10 21.1
2014-Apr-17 18:30 275 5 gusting 8 21.1
2014-Apr-17 18:20 284 6 gusting 10 21.1
2014-Apr-17 18:10 280 6 gusting 10 21.7
2014-Apr-17 18:00 262 7 gusting 10 21.7
2014-Apr-17 17:50 254 8 gusting 12 21.7
2014-Apr-17 17:40 248 6 gusting 12 21.7
2014-Apr-17 17:30 291 6 gusting 12 22.2
2014-Apr-17 17:20 306 4 gusting 12 22.2
2014-Apr-17 17:10 289 4 gusting 7 22.2
2014-Apr-17 17:00 103 6 gusting 12 22.8
2014-Apr-17 16:50 113 6 gusting 11 22.8
2014-Apr-17 16:40 121 10 gusting 13 21.7
2014-Apr-17 16:30 107 9 gusting 13 21.7
2014-Apr-17 16:20 135 11 gusting 17 21.1
2014-Apr-17 16:10 121 8 gusting 13 21.7
2014-Apr-17 16:00 107 10 gusting 13 21.7
2014-Apr-17 15:50 106 10 gusting 14 21.7
2014-Apr-17 15:40 123 7 gusting 13 21.1
2014-Apr-17 15:30 120 10 gusting 15 21.1
2014-Apr-17 15:20 107 10 gusting 19 21.1
2014-Apr-17 15:10 120 10 gusting 18 21.7
2014-Apr-17 15:00 114 13 gusting 17 22.2
2014-Apr-17 14:50 110 11 gusting 15 22.8
2014-Apr-17 14:40 113 13 gusting 18 23.3
2014-Apr-17 14:30 121 11 gusting 17 22.8
2014-Apr-17 14:20 102 12 gusting 17 23.3
2014-Apr-17 14:10 107 12 gusting 15 23.3
2014-Apr-17 14:00 111 12 gusting 17 23.3
2014-Apr-17 13:50 126 11 gusting 17 23.3
2014-Apr-17 13:40 114 11 gusting 19 23.3
2014-Apr-17 13:30 088 12 gusting 17 23.3
2014-Apr-17 13:20 119 13 gusting 18 23.3
2014-Apr-17 13:10 111 13 gusting 19 23.3
2014-Apr-17 13:00 107 13 gusting 19 23.3
2014-Apr-17 12:50 094 13 gusting 19 22.8
2014-Apr-17 12:40 116 13 gusting 19 22.2
2014-Apr-17 12:30 111 11 gusting 15 22.2
2014-Apr-17 12:20 093 11 gusting 17 22.8
2014-Apr-17 12:10 102 12 gusting 17 22.2
2014-Apr-17 12:00 112 13 gusting 19 21.7